createdAt,value
2018-05-14T00:00:37.904Z,15.30
2018-05-14T00:03:04.873Z,15.20
2018-05-14T00:05:31.052Z,15.10
2018-05-14T00:07:57.280Z,15.10
2018-05-14T00:10:23.464Z,15.00
2018-05-14T00:12:49.681Z,15.00
2018-05-14T00:15:15.864Z,15.00
2018-05-14T00:17:42.045Z,14.90
2018-05-14T00:20:10.368Z,14.90
2018-05-14T00:22:36.634Z,14.70
2018-05-14T00:25:02.840Z,14.80
2018-05-14T00:27:29.842Z,14.80
2018-05-14T00:29:56.049Z,14.70
2018-05-14T00:32:22.269Z,14.70
2018-05-14T00:34:48.484Z,14.70
2018-05-14T00:37:15.404Z,14.50
2018-05-14T00:39:41.584Z,14.50
2018-05-14T00:42:07.780Z,14.50
2018-05-14T00:44:34.713Z,14.40
2018-05-14T00:47:00.923Z,14.40
2018-05-14T00:49:27.181Z,14.30
2018-05-14T00:51:53.385Z,14.30
2018-05-14T00:54:19.560Z,14.30
2018-05-14T00:56:45.744Z,14.20
2018-05-14T00:59:11.928Z,14.20
2018-05-14T01:01:38.584Z,14.20
2018-05-14T01:04:04.920Z,14.10
2018-05-14T01:06:31.139Z,14.10
2018-05-14T01:08:57.434Z,14.10
2018-05-14T01:11:24.359Z,14.00
2018-05-14T01:13:50.564Z,14.00
2018-05-14T01:16:16.768Z,13.90
2018-05-14T01:18:42.936Z,13.90
2018-05-14T01:21:09.159Z,13.90
2018-05-14T01:23:35.347Z,13.80
2018-05-14T01:26:01.560Z,13.90
2018-05-14T01:28:27.757Z,13.80
2018-05-14T01:30:53.942Z,13.80
2018-05-14T01:33:20.232Z,13.80
2018-05-14T01:35:47.152Z,13.60
2018-05-14T01:38:13.349Z,13.70
2018-05-14T01:40:39.544Z,13.60
2018-05-14T01:43:06.492Z,13.50
2018-05-14T01:45:33.425Z,13.50
2018-05-14T01:48:00.397Z,13.50
2018-05-14T01:50:26.617Z,13.50
2018-05-14T01:52:52.932Z,13.40
2018-05-14T01:55:19.877Z,13.40
2018-05-14T01:57:46.825Z,13.30
2018-05-14T02:00:13.764Z,13.30
2018-05-14T02:02:40.729Z,13.30
2018-05-14T02:05:06.932Z,13.30
2018-05-14T02:07:33.884Z,13.30
2018-05-14T02:10:00.836Z,13.30
2018-05-14T02:12:27.776Z,13.20
2018-05-14T02:14:54.994Z,13.20
2018-05-14T02:17:21.236Z,13.20
2018-05-14T02:19:47.432Z,13.20
2018-05-14T02:22:13.677Z,13.20
2018-05-14T02:24:39.904Z,13.20
2018-05-14T02:27:06.084Z,13.10
2018-05-14T02:29:33.036Z,13.00
2018-05-14T02:31:59.977Z,13.00
2018-05-14T02:34:26.977Z,13.00
2018-05-14T02:36:53.200Z,13.00
2018-05-14T02:39:19.392Z,12.90
2018-05-14T02:41:45.591Z,12.90
2018-05-14T02:44:12.192Z,12.90
2018-05-14T02:46:38.390Z,12.80
2018-05-14T02:49:04.584Z,12.80
2018-05-14T02:51:30.788Z,12.70
2018-05-14T02:53:56.983Z,12.60
2018-05-14T02:56:23.165Z,12.50
2018-05-14T02:58:49.383Z,12.50
2018-05-14T03:01:15.660Z,12.50
2018-05-14T03:03:41.840Z,12.50
2018-05-14T03:06:08.073Z,12.50
2018-05-14T03:08:34.608Z,12.60
2018-05-14T03:11:00.788Z,12.50
2018-05-14T03:13:26.992Z,12.40
2018-05-14T03:15:53.934Z,12.40
2018-05-14T03:18:20.872Z,12.40
2018-05-14T03:20:47.076Z,12.40
2018-05-14T03:23:13.272Z,12.30
2018-05-14T03:25:39.463Z,12.30
2018-05-14T03:28:05.707Z,12.30
2018-05-14T03:30:32.628Z,12.40
2018-05-14T03:32:58.913Z,12.40
2018-05-14T03:35:25.135Z,12.40
2018-05-14T03:37:51.313Z,12.30
2018-05-14T03:40:17.557Z,12.30
2018-05-14T03:42:44.486Z,12.30
2018-05-14T03:45:10.693Z,12.30
2018-05-14T03:47:36.889Z,12.30
2018-05-14T03:50:03.089Z,12.20
2018-05-14T03:52:30.072Z,12.20
2018-05-14T03:54:56.350Z,12.20
2018-05-14T03:57:23.320Z,12.20
2018-05-14T04:00:02.691Z,12.50
2018-05-14T04:02:41.145Z,12.50
2018-05-14T04:05:16.462Z,12.50
2018-05-14T04:07:42.683Z,12.40
2018-05-14T04:10:08.873Z,12.40
2018-05-14T04:12:35.824Z,12.30
2018-05-14T04:15:02.823Z,12.30
2018-05-14T04:17:29.017Z,12.30
2018-05-14T04:19:55.224Z,12.30
2018-05-14T04:22:22.160Z,12.30
2018-05-14T04:24:50.408Z,12.30
2018-05-14T04:27:16.619Z,12.30
2018-05-14T04:29:42.820Z,12.30
2018-05-14T04:32:09.032Z,12.30
2018-05-14T04:34:37.967Z,12.40
2018-05-14T04:37:04.182Z,12.40
2018-05-14T04:39:30.383Z,12.40
2018-05-14T04:41:57.636Z,12.40
2018-05-14T04:44:24.589Z,12.50
2018-05-14T04:46:51.060Z,12.50
2018-05-14T04:49:17.528Z,12.50
2018-05-14T04:51:43.721Z,12.60
2018-05-14T04:54:09.920Z,12.60
2018-05-14T04:56:36.149Z,12.70
2018-05-14T04:59:02.348Z,12.70
2018-05-14T05:01:29.296Z,12.80
2018-05-14T05:03:56.246Z,12.90
2018-05-14T05:06:23.170Z,12.90
2018-05-14T05:08:49.500Z,12.90
2018-05-14T05:11:15.720Z,13.00
2018-05-14T05:13:41.933Z,13.10
2018-05-14T05:16:08.139Z,13.40
2018-05-14T05:18:34.361Z,13.60
2018-05-14T05:21:00.571Z,13.80
2018-05-14T05:23:27.607Z,13.90
2018-05-14T05:25:54.592Z,14.10
2018-05-14T05:28:20.934Z,14.10
2018-05-14T05:30:47.099Z,14.10
2018-05-14T05:33:13.421Z,14.30
2018-05-14T05:35:39.615Z,14.40
2018-05-14T05:38:05.792Z,14.50
2018-05-14T05:40:32.052Z,14.70
2018-05-14T05:42:58.976Z,14.90
2018-05-14T05:45:25.928Z,15.30
2018-05-14T05:47:52.939Z,15.90
2018-05-14T05:50:19.254Z,15.90
2018-05-14T05:52:45.460Z,16.50
2018-05-14T05:55:11.688Z,16.90
2018-05-14T05:57:37.885Z,17.20
2018-05-14T06:00:04.095Z,17.50
2018-05-14T06:02:30.722Z,17.60
2018-05-14T06:04:56.913Z,17.80
2018-05-14T06:07:23.114Z,17.90
2018-05-14T06:09:50.092Z,18.10
2018-05-14T06:12:16.301Z,18.10
2018-05-14T06:14:43.308Z,18.50
2018-05-14T06:17:10.269Z,18.60
2018-05-14T06:19:36.484Z,18.50
2018-05-14T06:22:02.680Z,18.60
2018-05-14T06:24:28.879Z,18.70
2018-05-14T06:26:55.881Z,19.10
2018-05-14T06:29:22.071Z,19.00
2018-05-14T06:31:48.273Z,19.20
2018-05-14T06:34:15.208Z,19.50
2018-05-14T06:36:42.135Z,19.50
2018-05-14T06:39:08.358Z,19.50
2018-05-14T06:41:34.567Z,19.60
2018-05-14T06:44:00.764Z,19.70
2018-05-14T06:46:26.988Z,19.60
2018-05-14T06:48:53.974Z,19.80
2018-05-14T06:51:20.184Z,19.80
2018-05-14T06:53:46.407Z,19.90
2018-05-14T06:56:12.616Z,20.10
2018-05-14T06:58:39.568Z,20.30
2018-05-14T07:01:05.793Z,20.30
2018-05-14T07:03:31.993Z,20.40
2018-05-14T07:05:58.185Z,20.50
2018-05-14T07:08:24.394Z,20.60
2018-05-14T07:10:51.008Z,20.70
2018-05-14T07:13:17.928Z,20.80
2018-05-14T07:15:44.117Z,20.80
2018-05-14T07:18:10.345Z,20.90
2018-05-14T07:20:36.540Z,21.00
2018-05-14T07:23:03.520Z,21.10
2018-05-14T07:25:29.739Z,21.10
2018-05-14T07:27:55.939Z,21.00
2018-05-14T07:30:22.986Z,21.30
2018-05-14T07:32:49.940Z,21.50
2018-05-14T07:35:16.953Z,21.60
2018-05-14T07:37:43.163Z,21.60
2018-05-14T07:40:09.392Z,21.80
2018-05-14T07:42:35.587Z,21.70
2018-05-14T07:45:01.835Z,21.90
2018-05-14T07:47:28.748Z,22.20
2018-05-14T07:49:55.688Z,22.30
2018-05-14T07:52:22.383Z,22.30
2018-05-14T07:54:48.584Z,22.30
2018-05-14T07:57:14.817Z,22.40
2018-05-14T07:59:41.014Z,22.50
2018-05-14T08:02:07.242Z,22.70
2018-05-14T08:04:34.657Z,23.00
2018-05-14T08:07:00.841Z,23.00
2018-05-14T08:09:27.784Z,23.10
2018-05-14T08:11:54.116Z,23.10
2018-05-14T08:14:21.079Z,23.30
2018-05-14T08:16:47.284Z,23.30
2018-05-14T08:19:14.245Z,23.60
2018-05-14T08:21:40.476Z,23.60
2018-05-14T08:24:06.674Z,23.80
2018-05-14T08:26:33.388Z,23.80
2018-05-14T08:28:59.585Z,23.80
2018-05-14T08:31:25.799Z,23.90
2018-05-14T08:33:53.171Z,24.10
2018-05-14T08:36:19.363Z,24.10
2018-05-14T08:38:46.328Z,24.20
2018-05-14T08:41:12.532Z,24.20
2018-05-14T08:43:39.296Z,24.30
2018-05-14T08:46:05.469Z,24.40
2018-05-14T08:48:31.672Z,24.40
2018-05-14T08:50:57.992Z,24.20
2018-05-14T08:53:24.300Z,24.20
2018-05-14T08:55:51.239Z,24.70
2018-05-14T08:58:18.180Z,24.80
2018-05-14T09:00:44.415Z,24.70
2018-05-14T09:03:10.602Z,24.80
2018-05-14T09:05:36.921Z,24.90
2018-05-14T09:08:03.121Z,25.10
2018-05-14T09:10:30.044Z,25.10
2018-05-14T09:12:56.277Z,25.10
2018-05-14T09:15:22.596Z,25.20
2018-05-14T09:17:48.782Z,25.40
2018-05-14T09:20:14.969Z,25.40
2018-05-14T09:22:41.911Z,25.50
2018-05-14T09:25:08.112Z,25.50
2018-05-14T09:27:34.394Z,25.80
2018-05-14T09:30:00.629Z,25.60
2018-05-14T09:32:27.204Z,25.70
2018-05-14T09:34:53.426Z,25.60
2018-05-14T09:37:19.694Z,25.80
2018-05-14T09:39:45.835Z,25.50
2018-05-14T09:42:13.046Z,25.60
2018-05-14T09:44:39.553Z,25.60
2018-05-14T09:47:05.580Z,25.80
2018-05-14T09:49:31.803Z,25.80
2018-05-14T09:52:00.343Z,25.90
2018-05-14T09:54:26.536Z,26.00
2018-05-14T09:56:52.733Z,26.20
2018-05-14T09:59:18.964Z,26.30
2018-05-14T10:01:45.399Z,26.40
2018-05-14T10:04:11.619Z,26.60
2018-05-14T10:06:37.825Z,26.50
2018-05-14T10:09:05.134Z,26.80
2018-05-14T10:11:31.492Z,26.80
2018-05-14T10:13:57.693Z,26.60
2018-05-14T10:16:23.886Z,26.60
2018-05-14T10:18:50.192Z,26.70
2018-05-14T10:21:16.369Z,26.50
2018-05-14T10:23:42.551Z,26.60
2018-05-14T10:26:08.760Z,26.60
2018-05-14T10:28:34.968Z,26.60
2018-05-14T10:31:01.311Z,26.80
2018-05-14T10:33:27.506Z,26.90
2018-05-14T10:35:53.742Z,26.90
2018-05-14T10:38:22.348Z,27.10
2018-05-14T10:40:48.868Z,27.10
2018-05-14T10:43:15.153Z,27.10
2018-05-14T10:45:41.383Z,27.10
2018-05-14T10:48:08.353Z,26.90
2018-05-14T10:50:35.509Z,26.80
2018-05-14T10:53:01.846Z,26.90
2018-05-14T10:55:28.376Z,27.10
2018-05-14T10:57:55.596Z,27.40
2018-05-14T11:00:21.896Z,27.40
2018-05-14T11:02:48.089Z,27.20
2018-05-14T11:05:14.297Z,27.40
2018-05-14T11:07:40.658Z,27.30
2018-05-14T11:10:06.896Z,27.30
2018-05-14T11:12:33.101Z,27.30
2018-05-14T11:14:59.324Z,27.20
2018-05-14T11:17:26.256Z,27.50
2018-05-14T11:19:53.202Z,27.60
2018-05-14T11:22:20.248Z,27.40
2018-05-14T11:24:47.288Z,27.30
2018-05-14T11:27:13.666Z,27.40
2018-05-14T11:29:40.370Z,27.20
2018-05-14T11:32:07.312Z,27.60
2018-05-14T11:34:34.383Z,27.50
2018-05-14T11:37:00.640Z,27.50
2018-05-14T11:39:26.848Z,27.60
2018-05-14T11:41:53.044Z,27.50
2018-05-14T11:44:19.249Z,27.50
2018-05-14T11:46:45.434Z,27.50
2018-05-14T11:49:11.632Z,27.50
2018-05-14T11:51:38.562Z,27.50
2018-05-14T11:54:04.761Z,27.40
2018-05-14T11:56:30.958Z,27.60
2018-05-14T11:58:57.180Z,27.70
2018-05-14T12:01:23.504Z,27.70
2018-05-14T12:03:50.457Z,27.50
2018-05-14T12:06:17.402Z,27.50
2018-05-14T12:08:44.336Z,27.50
2018-05-14T12:11:10.635Z,27.50
2018-05-14T12:13:37.672Z,27.50
2018-05-14T12:16:03.910Z,27.50
2018-05-14T12:18:30.548Z,27.40
2018-05-14T12:20:56.781Z,27.20
2018-05-14T12:23:22.973Z,27.30
2018-05-14T12:25:49.200Z,27.40
2018-05-14T12:28:15.398Z,27.40
2018-05-14T12:30:42.347Z,27.50
2018-05-14T12:33:09.280Z,27.40
2018-05-14T12:35:36.223Z,27.50
2018-05-14T12:38:03.160Z,27.70
2018-05-14T12:40:29.363Z,27.70
2018-05-14T12:42:55.610Z,27.90
2018-05-14T12:45:21.800Z,28.00
2018-05-14T12:47:48.008Z,28.00
2018-05-14T12:50:14.228Z,28.00
2018-05-14T12:52:41.182Z,28.10
2018-05-14T12:55:07.420Z,28.10
2018-05-14T12:57:33.771Z,27.80
2018-05-14T12:59:59.968Z,27.60
2018-05-14T13:02:26.914Z,27.50
2018-05-14T13:04:53.128Z,27.50
2018-05-14T13:07:20.112Z,27.80
2018-05-14T13:09:46.302Z,27.80
2018-05-14T13:12:13.275Z,27.90
2018-05-14T13:14:39.481Z,27.90
2018-05-14T13:17:06.424Z,27.60
2018-05-14T13:19:33.441Z,27.50
2018-05-14T13:22:00.357Z,27.30
2018-05-14T13:24:26.888Z,27.30
2018-05-14T13:26:53.114Z,27.20
2018-05-14T13:29:19.343Z,27.10
2018-05-14T13:31:45.686Z,27.20
2018-05-14T13:34:11.891Z,27.30
2018-05-14T13:36:38.118Z,27.40
2018-05-14T13:39:04.520Z,27.40
2018-05-14T13:41:30.729Z,27.60
2018-05-14T13:43:56.953Z,27.60
2018-05-14T13:46:23.176Z,27.70
2018-05-14T13:48:49.394Z,27.80
2018-05-14T13:51:15.825Z,27.80
2018-05-14T13:53:42.004Z,27.90
2018-05-14T13:56:08.309Z,27.90
2018-05-14T13:58:34.818Z,27.70
2018-05-14T14:01:01.376Z,27.40
2018-05-14T14:03:27.563Z,27.20
2018-05-14T14:05:53.781Z,27.10
2018-05-14T14:08:20.761Z,27.00
2018-05-14T14:10:47.011Z,27.00
2018-05-14T14:13:13.232Z,27.00
2018-05-14T14:15:39.424Z,27.00
2018-05-14T14:18:05.650Z,26.90
2018-05-14T14:20:33.600Z,26.90
2018-05-14T14:23:00.538Z,26.90
2018-05-14T14:25:26.802Z,26.80
2018-05-14T14:27:53.025Z,26.80
2018-05-14T14:30:19.333Z,26.70
2018-05-14T14:32:45.558Z,26.90
2018-05-14T14:35:12.510Z,27.10
2018-05-14T14:37:39.461Z,27.20
2018-05-14T14:40:06.392Z,27.30
2018-05-14T14:42:33.475Z,27.40
2018-05-14T14:44:59.729Z,27.40
2018-05-14T14:47:25.975Z,27.50
2018-05-14T14:49:52.291Z,27.40
2018-05-14T14:52:18.508Z,27.40
2018-05-14T14:54:44.751Z,27.40
2018-05-14T14:57:10.955Z,27.30
2018-05-14T14:59:37.175Z,27.10
2018-05-14T15:02:03.550Z,26.90
2018-05-14T15:04:29.766Z,26.70
2018-05-14T15:06:56.056Z,26.70
2018-05-14T15:09:22.277Z,26.70
2018-05-14T15:11:49.220Z,26.90
2018-05-14T15:14:16.152Z,26.80
2018-05-14T15:16:42.338Z,26.80
2018-05-14T15:19:08.533Z,26.70
2018-05-14T15:21:35.502Z,26.70
2018-05-14T15:24:01.701Z,26.70
2018-05-14T15:26:28.640Z,26.70
2018-05-14T15:28:55.568Z,26.80
2018-05-14T15:31:21.840Z,26.80
2018-05-14T15:33:48.175Z,26.80
2018-05-14T15:36:14.417Z,26.80
2018-05-14T15:38:40.612Z,26.90
2018-05-14T15:41:07.565Z,26.80
2018-05-14T15:43:34.505Z,26.80
2018-05-14T15:46:01.541Z,26.80
2018-05-14T15:48:28.476Z,26.80
2018-05-14T15:50:54.678Z,26.70
2018-05-14T15:53:20.888Z,26.80
2018-05-14T15:55:47.084Z,26.70
2018-05-14T15:58:14.056Z,26.70
2018-05-14T16:00:40.282Z,26.70
2018-05-14T16:03:06.500Z,26.70
2018-05-14T16:05:32.702Z,26.60
2018-05-14T16:07:58.899Z,26.60
2018-05-14T16:10:25.144Z,26.50
2018-05-14T16:12:51.361Z,26.60
2018-05-14T16:15:17.542Z,26.50
2018-05-14T16:17:43.746Z,26.60
2018-05-14T16:20:09.941Z,26.60
2018-05-14T16:22:36.149Z,26.50
2018-05-14T16:25:02.390Z,26.50
2018-05-14T16:27:28.580Z,26.40
2018-05-14T16:29:54.808Z,26.30
2018-05-14T16:32:21.757Z,26.30
2018-05-14T16:34:47.960Z,26.30
2018-05-14T16:37:14.268Z,26.40
2018-05-14T16:39:40.468Z,26.30
2018-05-14T16:42:06.668Z,26.20
2018-05-14T16:44:33.601Z,26.20
2018-05-14T16:47:00.529Z,26.10
2018-05-14T16:49:26.896Z,26.10
2018-05-14T16:51:53.135Z,26.00
2018-05-14T16:54:19.361Z,26.00
2018-05-14T16:56:45.601Z,25.90
2018-05-14T16:59:11.808Z,25.90
2018-05-14T17:01:38.810Z,25.90
2018-05-14T17:04:05.114Z,25.90
2018-05-14T17:06:31.253Z,25.80
2018-05-14T17:08:57.477Z,25.80
2018-05-14T17:11:23.808Z,25.60
2018-05-14T17:13:50.022Z,25.50
2018-05-14T17:16:16.229Z,25.40
2018-05-14T17:18:43.161Z,25.30
2018-05-14T17:21:10.149Z,25.30
2018-05-14T17:23:36.396Z,25.30
2018-05-14T17:26:02.638Z,25.30
2018-05-14T17:28:28.845Z,25.20
2018-05-14T17:30:55.055Z,25.20
2018-05-14T17:33:21.272Z,25.20
2018-05-14T17:35:47.592Z,25.20
2018-05-14T17:38:14.540Z,25.10
2018-05-14T17:40:41.479Z,25.10
2018-05-14T17:43:08.416Z,25.00
2018-05-14T17:45:35.361Z,25.00
2018-05-14T17:48:02.315Z,24.90
2018-05-14T17:50:29.334Z,24.90
2018-05-14T17:52:55.574Z,24.90
2018-05-14T17:55:21.770Z,25.00
2018-05-14T17:57:47.960Z,25.10
2018-05-14T18:00:14.914Z,25.30
2018-05-14T18:02:41.244Z,25.30
2018-05-14T18:05:07.486Z,25.30
2018-05-14T18:07:33.677Z,25.40
2018-05-14T18:10:00.612Z,25.20
2018-05-14T18:12:26.823Z,25.20
2018-05-14T18:14:53.053Z,25.10
2018-05-14T18:17:19.297Z,25.00
2018-05-14T18:19:51.881Z,24.80
2018-05-14T18:22:24.712Z,24.60
2018-05-14T18:24:50.939Z,24.50
2018-05-14T18:27:23.113Z,24.50
2018-05-14T18:30:00.283Z,24.30
2018-05-14T18:32:26.541Z,24.20
2018-05-14T18:34:55.755Z,24.10
2018-05-14T18:37:22.081Z,24.00
2018-05-14T18:39:48.343Z,23.90
2018-05-14T18:42:15.286Z,23.70
2018-05-14T18:44:42.249Z,23.60
2018-05-14T18:47:09.244Z,23.60
2018-05-14T18:49:35.450Z,23.50
2018-05-14T18:52:01.683Z,23.50
2018-05-14T18:54:27.938Z,23.40
2018-05-14T18:56:54.151Z,23.30
2018-05-14T18:59:20.357Z,23.20
2018-05-14T19:01:46.577Z,23.10
2018-05-14T19:04:12.831Z,22.90
2018-05-14T19:06:39.049Z,22.90
2018-05-14T19:09:05.287Z,22.80
2018-05-14T19:11:37.596Z,22.70
2018-05-14T19:14:03.856Z,22.60
2018-05-14T19:16:44.959Z,22.40
2018-05-14T19:19:11.719Z,22.40
2018-05-14T19:21:47.918Z,22.30
2018-05-14T19:24:14.492Z,22.20
2018-05-14T19:26:41.441Z,22.00
2018-05-14T19:29:14.481Z,22.00
2018-05-14T19:31:40.685Z,21.90
2018-05-14T19:34:12.964Z,21.90
2018-05-14T19:36:39.157Z,21.80
2018-05-14T19:39:05.801Z,21.70
2018-05-14T19:41:32.068Z,21.60
2018-05-14T19:43:58.952Z,21.20
2018-05-14T19:46:25.884Z,21.20
2018-05-14T19:48:52.196Z,21.10
2018-05-14T19:51:18.384Z,20.90
2018-05-14T19:53:44.624Z,20.90
2018-05-14T19:56:10.874Z,20.80
2018-05-14T19:58:37.120Z,20.80
2018-05-14T20:01:03.354Z,20.70
2018-05-14T20:03:29.638Z,20.70
2018-05-14T20:05:55.825Z,20.60
2018-05-14T20:08:22.018Z,20.60
2018-05-14T20:10:48.232Z,20.50
2018-05-14T20:13:14.451Z,20.40
2018-05-14T20:15:42.010Z,20.30
2018-05-14T20:18:08.222Z,20.20
2018-05-14T20:20:34.453Z,20.20
2018-05-14T20:23:00.659Z,20.10
2018-05-14T20:25:26.859Z,20.10
2018-05-14T20:27:53.231Z,20.00
2018-05-14T20:30:20.204Z,19.90
2018-05-14T20:32:46.411Z,19.90
2018-05-14T20:35:13.380Z,19.90
2018-05-14T20:37:39.611Z,19.90
2018-05-14T20:40:05.959Z,19.80
2018-05-14T20:42:32.286Z,19.80
2018-05-14T20:45:01.189Z,19.70
2018-05-14T20:47:27.441Z,19.70
2018-05-14T20:49:53.673Z,19.70
2018-05-14T20:52:19.869Z,19.60
2018-05-14T20:54:46.096Z,19.60
2018-05-14T20:57:12.348Z,19.60
2018-05-14T20:59:38.704Z,19.50
2018-05-14T21:02:04.876Z,19.50
2018-05-14T21:04:31.085Z,19.40
2018-05-14T21:06:57.299Z,19.40
2018-05-14T21:09:24.270Z,19.30
2018-05-14T21:11:50.492Z,19.30
2018-05-14T21:14:16.854Z,19.30
2018-05-14T21:16:43.101Z,19.20
2018-05-14T21:19:09.372Z,19.10
2018-05-14T21:21:35.593Z,19.10
2018-05-14T21:24:02.544Z,18.90
2018-05-14T21:26:28.879Z,18.90
2018-05-14T21:28:55.129Z,18.80
2018-05-14T21:31:21.460Z,18.80
2018-05-14T21:33:47.613Z,18.80
2018-05-14T21:36:13.867Z,18.80
2018-05-14T21:38:40.129Z,18.80
2018-05-14T21:41:06.409Z,18.70
2018-05-14T21:43:32.721Z,18.70
2018-05-14T21:45:58.912Z,18.60
2018-05-14T21:48:25.124Z,18.70
2018-05-14T21:50:52.227Z,18.60
2018-05-14T21:53:18.464Z,18.60
2018-05-14T21:55:45.208Z,18.50
2018-05-14T21:58:11.397Z,18.50
2018-05-14T22:00:37.654Z,18.50
2018-05-14T22:03:03.917Z,18.40
2018-05-14T22:05:30.125Z,18.40
2018-05-14T22:07:56.363Z,18.40
2018-05-14T22:10:22.572Z,18.30
2018-05-14T22:12:49.320Z,18.30
2018-05-14T22:15:15.529Z,18.30
2018-05-14T22:17:41.750Z,18.20
2018-05-14T22:20:08.015Z,18.20
2018-05-14T22:22:34.228Z,18.20
2018-05-14T22:25:00.428Z,18.10
2018-05-14T22:27:26.685Z,18.10
2018-05-14T22:29:52.971Z,18.00
2018-05-14T22:32:19.984Z,17.90
2018-05-14T22:34:46.994Z,17.90
2018-05-14T22:37:13.208Z,17.90
2018-05-14T22:39:39.549Z,17.90
2018-05-14T22:42:05.777Z,17.80
2018-05-14T22:44:31.996Z,17.70
2018-05-14T22:46:58.214Z,17.70
2018-05-14T22:49:25.159Z,17.60
2018-05-14T22:51:52.229Z,17.60
2018-05-14T22:54:30.940Z,17.60
2018-05-14T22:56:57.211Z,17.60
2018-05-14T22:59:23.422Z,17.50
2018-05-14T23:01:49.676Z,17.40
2018-05-14T23:04:15.917Z,17.40
2018-05-14T23:06:42.116Z,17.30
2018-05-14T23:09:08.345Z,17.20
2018-05-14T23:11:35.105Z,17.20
2018-05-14T23:14:01.388Z,17.10
2018-05-14T23:16:27.527Z,17.00
2018-05-14T23:18:53.921Z,16.80
2018-05-14T23:21:20.154Z,16.70
2018-05-14T23:23:47.142Z,16.50
2018-05-14T23:26:13.330Z,16.50
2018-05-14T23:28:40.257Z,16.40
2018-05-14T23:31:06.526Z,16.40
2018-05-14T23:33:32.740Z,16.40
2018-05-14T23:35:59.680Z,16.30
2018-05-14T23:38:26.663Z,16.20
2018-05-14T23:40:52.886Z,16.20
2018-05-14T23:43:19.260Z,16.20
2018-05-14T23:45:45.623Z,16.10
2018-05-14T23:48:11.795Z,16.00
2018-05-14T23:50:38.441Z,16.00
2018-05-14T23:53:04.655Z,15.90
2018-05-14T23:55:30.892Z,15.90
2018-05-14T23:57:57.257Z,15.80
